Time;durP1;ratioP1;P1;durP2;ratioP2;P2;SDS_P1;SDS_P2;PMS_P1;PMS_P2;Temp;Humidity;BMP_temperature;BMP_pressure;BME280_temperature;BME280_humidity;BME280_pressure;Samples;Min_cycle;Max_cycle;Signal;HPM_P1;HPM_P2
2021/12/22 00:00:59;;;;;;;17.75;14.55;;;-2.30;99.90;;;;;;5040675;28;20198;-84
2021/12/22 00:03:26;;;;;;;30.80;15.00;;;-2.30;99.90;;;;;;5040203;28;20209;-84
2021/12/22 00:05:59;;;;;;;15.93;13.60;;;-2.30;99.90;;;;;;5039332;28;20205;-85
2021/12/22 00:08:38;;;;;;;19.02;14.73;;;-2.20;99.90;;;;;;5039343;28;20214;-85
2021/12/22 00:11:05;;;;;;;21.30;14.57;;;-2.20;99.90;;;;;;5038823;28;20203;-85
2021/12/22 00:13:31;;;;;;;21.20;16.45;;;-2.20;99.90;;;;;;5039943;28;20202;-84
2021/12/22 00:15:58;;;;;;;16.00;14.32;;;-2.20;99.90;;;;;;5040311;28;20286;-85
2021/12/22 00:18:25;;;;;;;17.90;15.68;;;-2.20;99.90;;;;;;5040237;28;20221;-84
2021/12/22 00:20:52;;;;;;;17.25;15.63;;;-2.20;99.90;;;;;;5040401;28;20207;-84
2021/12/22 00:23:18;;;;;;;23.23;13.73;;;-2.20;99.90;;;;;;5040160;28;20579;-84
2021/12/22 00:25:46;;;;;;;17.60;14.15;;;-2.30;99.90;;;;;;5039079;28;20569;-84
2021/12/22 00:28:13;;;;;;;20.63;14.45;;;-2.20;99.90;;;;;;5028959;28;20202;-85
2021/12/22 00:30:40;;;;;;;18.35;13.18;;;-2.30;99.90;;;;;;5039611;28;20249;-84
2021/12/22 00:33:10;;;;;;;21.27;16.15;;;-2.30;99.90;;;;;;5038915;28;20254;-85
2021/12/22 00:35:42;;;;;;;19.10;14.73;;;-2.30;99.90;;;;;;5038607;28;20205;-84
2021/12/22 00:38:10;;;;;;;21.83;13.63;;;-2.30;99.90;;;;;;5039225;28;20722;-84
2021/12/22 00:40:39;;;;;;;15.00;13.15;;;-2.30;99.90;;;;;;5039581;28;20290;-84
2021/12/22 00:43:08;;;;;;;18.45;14.27;;;-2.30;99.90;;;;;;5038602;28;20209;-85
2021/12/22 00:45:35;;;;;;;14.38;12.00;;;-2.30;99.90;;;;;;5040373;28;20237;-84
2021/12/22 00:48:03;;;;;;;19.23;14.15;;;-2.30;99.90;;;;;;5040983;28;20212;-85
2021/12/22 00:50:32;;;;;;;15.50;12.38;;;-2.30;99.90;;;;;;5038576;28;20194;-84
2021/12/22 00:52:59;;;;;;;18.35;14.07;;;-2.40;99.90;;;;;;5038765;28;20215;-84
2021/12/22 00:55:26;;;;;;;16.33;14.15;;;-2.40;99.90;;;;;;5038888;28;20199;-86
2021/12/22 00:57:53;;;;;;;18.92;13.88;;;-2.40;99.90;;;;;;5039249;28;20232;-84
2021/12/22 01:00:23;;;;;;;20.40;13.80;;;-2.40;99.90;;;;;;5037766;28;20213;-84
2021/12/22 01:02:50;;;;;;;15.63;12.52;;;-2.40;99.90;;;;;;5037001;28;20205;-84
2021/12/22 01:05:17;;;;;;;16.15;14.45;;;-2.50;99.90;;;;;;5037114;28;20234;-84
2021/12/22 01:07:46;;;;;;;15.60;12.60;;;-2.40;99.90;;;;;;5036601;28;20214;-84
2021/12/22 01:10:15;;;;;;;18.88;13.25;;;-2.40;99.90;;;;;;5037262;28;20586;-84
2021/12/22 01:12:41;;;;;;;14.07;12.35;;;-2.40;99.90;;;;;;5037051;28;20210;-84
2021/12/22 01:15:11;;;;;;;16.45;13.05;;;-2.40;99.90;;;;;;5036870;28;20198;-85
2021/12/22 01:17:43;;;;;;;19.80;14.60;;;-2.40;99.90;;;;;;5036802;28;20321;-85
2021/12/22 01:20:20;;;;;;;15.50;12.90;;;-2.40;99.90;;;;;;5037385;28;20578;-84
2021/12/22 01:22:50;;;;;;;17.30;14.48;;;-2.40;99.90;;;;;;5037263;28;20694;-84
2021/12/22 01:25:22;;;;;;;15.80;12.20;;;-2.40;99.90;;;;;;5037294;28;20229;-85
2021/12/22 01:27:49;;;;;;;22.10;11.52;;;-2.40;99.90;;;;;;5038262;28;20230;-84
2021/12/22 01:30:19;;;;;;;15.40;12.77;;;-2.50;99.90;;;;;;5037064;28;20285;-84
2021/12/22 01:32:48;;;;;;;13.95;11.80;;;-2.50;99.90;;;;;;5036568;28;20576;-84
2021/12/22 01:35:19;;;;;;;14.80;13.15;;;-2.50;99.90;;;;;;5034019;28;20281;-84
2021/12/22 01:37:46;;;;;;;16.83;12.90;;;-2.50;99.90;;;;;;5037410;28;20317;-84
2021/12/22 01:40:15;;;;;;;19.00;12.57;;;-2.50;99.90;;;;;;5036622;28;20210;-84
2021/12/22 01:42:42;;;;;;;17.08;13.52;;;-2.50;99.90;;;;;;5036823;28;20212;-83
2021/12/22 01:45:26;;;;;;;18.48;14.10;;;-2.50;99.90;;;;;;5036728;28;20237;-83
2021/12/22 01:50:42;;;;;;;15.15;12.77;;;-2.50;99.90;;;;;;5040590;28;20213;-83
2021/12/22 01:53:36;;;;;;;16.83;12.68;;;-2.50;99.90;;;;;;5037295;28;20238;-84
2021/12/22 01:56:13;;;;;;;13.35;11.77;;;-2.50;99.90;;;;;;5038057;28;20210;-84
2021/12/22 01:58:43;;;;;;;17.70;12.18;;;-2.60;99.90;;;;;;5038161;28;20739;-84
2021/12/22 02:01:10;;;;;;;17.20;11.80;;;-2.60;99.90;;;;;;5037032;28;20233;-84
2021/12/22 02:03:40;;;;;;;14.50;12.40;;;-2.60;99.90;;;;;;5037591;28;20207;-84
2021/12/22 02:06:08;;;;;;;16.40;13.60;;;-2.70;99.90;;;;;;5037438;28;20230;-84
2021/12/22 02:08:36;;;;;;;21.33;13.65;;;-2.70;99.90;;;;;;5037657;28;20206;-83
2021/12/22 02:11:03;;;;;;;17.05;12.85;;;-2.80;99.90;;;;;;5036982;28;20202;-83
2021/12/22 02:13:34;;;;;;;18.05;14.02;;;-2.80;99.90;;;;;;5036431;28;20210;-83
2021/12/22 02:16:06;;;;;;;14.55;12.20;;;-2.80;99.90;;;;;;5036534;28;20266;-84
2021/12/22 02:18:33;;;;;;;25.65;15.48;;;-2.70;99.90;;;;;;5036758;28;20229;-84
2021/12/22 02:21:02;;;;;;;19.35;12.20;;;-2.70;99.90;;;;;;5036538;28;20212;-85
2021/12/22 02:23:29;;;;;;;15.57;11.38;;;-2.70;99.90;;;;;;5036881;28;20209;-86
2021/12/22 02:26:00;;;;;;;15.73;12.35;;;-2.70;99.90;;;;;;5036911;28;20280;-83
2021/12/22 02:28:31;;;;;;;14.30;11.82;;;-2.70;99.90;;;;;;5036703;28;20285;-83
2021/12/22 02:30:58;;;;;;;15.32;11.73;;;-2.70;99.90;;;;;;5039178;28;20213;-83
2021/12/22 02:33:32;;;;;;;20.52;14.25;;;-2.70;99.90;;;;;;5036472;28;20209;-84
2021/12/22 02:36:10;;;;;;;19.08;11.80;;;-2.70;99.90;;;;;;5036880;28;20285;-83
2021/12/22 02:38:42;;;;;;;18.10;12.93;;;-2.70;99.90;;;;;;5036755;28;20214;-84
2021/12/22 02:41:11;;;;;;;16.00;12.95;;;-2.70;99.90;;;;;;5035863;28;20198;-84
2021/12/22 02:43:45;;;;;;;19.02;12.75;;;-2.70;99.90;;;;;;5037383;28;20233;-84
2021/12/22 02:46:12;;;;;;;14.55;11.20;;;-2.80;99.90;;;;;;5037731;28;20256;-86
2021/12/22 02:48:40;;;;;;;14.30;12.20;;;-2.80;99.90;;;;;;5047734;28;20202;-84
2021/12/22 02:51:08;;;;;;;22.40;13.60;;;-3.00;99.90;;;;;;5047813;28;20202;-83
2021/12/22 02:53:39;;;;;;;17.10;13.50;;;-2.90;99.90;;;;;;5041225;28;20206;-83
2021/12/22 02:56:16;;;;;;;22.38;14.13;;;-2.90;99.90;;;;;;5039245;28;20272;-83
2021/12/22 02:58:54;;;;;;;17.02;12.20;;;-2.90;99.90;;;;;;5038773;28;20671;-84
2021/12/22 03:01:38;;;;;;;15.40;12.55;;;-2.90;99.90;;;;;;5038459;28;20282;-83
2021/12/22 03:04:12;;;;;;;19.90;13.40;;;-2.90;99.90;;;;;;5039265;28;20198;-84
2021/12/22 03:06:47;;;;;;;17.02;11.65;;;-2.90;99.90;;;;;;5039453;28;20288;-84
2021/12/22 03:09:18;;;;;;;15.77;13.40;;;-2.90;99.90;;;;;;5040746;28;20285;-84
2021/12/22 03:11:45;;;;;;;19.58;13.43;;;-2.90;99.90;;;;;;5039962;28;20205;-84
2021/12/22 03:14:12;;;;;;;19.40;13.10;;;-2.90;99.90;;;;;;5040487;28;20202;-84
2021/12/22 03:16:42;;;;;;;15.57;12.90;;;-2.90;99.90;;;;;;5047896;28;20230;-84
2021/12/22 03:19:09;;;;;;;16.38;12.27;;;-2.90;99.90;;;;;;5048007;28;20210;-84
2021/12/22 03:21:36;;;;;;;17.98;12.88;;;-2.90;99.90;;;;;;5047540;28;20471;-84
2021/12/22 03:24:05;;;;;;;17.15;12.57;;;-2.90;99.90;;;;;;5048182;28;20199;-84
2021/12/22 03:26:31;;;;;;;18.42;12.68;;;-2.90;99.90;;;;;;5046922;28;20223;-84
2021/12/22 03:28:58;;;;;;;17.85;12.40;;;-2.90;99.90;;;;;;5046989;28;20198;-84
2021/12/22 03:31:25;;;;;;;13.60;11.60;;;-3.00;99.90;;;;;;5042187;28;20229;-84
2021/12/22 03:33:52;;;;;;;15.90;13.70;;;-3.00;99.90;;;;;;5040439;28;20206;-84
2021/12/22 03:36:18;;;;;;;15.00;12.07;;;-3.00;99.90;;;;;;5039996;28;20218;-84
2021/12/22 03:38:47;;;;;;;20.10;12.70;;;-3.00;99.90;;;;;;5039303;28;20611;-84
2021/12/22 03:41:15;;;;;;;18.02;14.15;;;-3.00;99.90;;;;;;5045780;28;20270;-84
2021/12/22 03:43:42;;;;;;;18.90;13.27;;;-3.00;99.90;;;;;;5047862;28;20202;-84
2021/12/22 03:46:10;;;;;;;14.65;12.40;;;-3.10;99.90;;;;;;5043105;28;20222;-84
2021/12/22 03:48:37;;;;;;;21.42;14.07;;;-3.00;99.90;;;;;;5042642;28;20206;-84
2021/12/22 03:51:04;;;;;;;15.05;11.63;;;-3.10;99.90;;;;;;5042576;28;20203;-83
2021/12/22 03:53:30;;;;;;;19.15;12.60;;;-3.10;99.90;;;;;;5041333;28;20222;-84
2021/12/22 03:55:57;;;;;;;14.10;10.90;;;-3.10;99.90;;;;;;5042371;28;20218;-84
2021/12/22 03:58:25;;;;;;;15.75;12.07;;;-3.20;99.90;;;;;;5042318;28;20214;-84
2021/12/22 04:00:55;;;;;;;19.90;12.75;;;-3.20;99.90;;;;;;5042368;28;20199;-84
2021/12/22 04:03:24;;;;;;;16.63;12.60;;;-3.20;99.90;;;;;;5042159;28;20213;-83
2021/12/22 04:05:51;;;;;;;15.18;11.57;;;-3.30;99.90;;;;;;5041608;28;20225;-84
2021/12/22 04:08:18;;;;;;;18.38;13.80;;;-3.30;99.90;;;;;;5041317;28;20213;-84
2021/12/22 04:10:46;;;;;;;14.70;12.32;;;-3.30;99.90;;;;;;5041556;28;20308;-83
2021/12/22 04:13:13;;;;;;;15.95;11.35;;;-3.40;99.90;;;;;;5041822;28;20237;-84
2021/12/22 04:15:42;;;;;;;17.08;10.65;;;-3.40;99.90;;;;;;5042924;28;20202;-83
2021/12/22 04:18:08;;;;;;;15.18;12.30;;;-3.40;99.90;;;;;;5041677;28;20277;-83
2021/12/22 04:20:35;;;;;;;15.82;12.77;;;-3.50;99.90;;;;;;5040458;28;20205;-84
2021/12/22 04:23:02;;;;;;;14.45;12.30;;;-3.40;99.90;;;;;;5040524;28;20213;-83
2021/12/22 04:25:30;;;;;;;15.80;12.10;;;-3.40;99.90;;;;;;5040347;28;20218;-84
2021/12/22 04:28:03;;;;;;;21.20;14.10;;;-3.40;99.90;;;;;;5040634;28;20229;-84
2021/12/22 04:30:30;;;;;;;16.17;11.55;;;-3.40;99.90;;;;;;5040725;28;20206;-84
2021/12/22 04:32:58;;;;;;;14.35;11.65;;;-3.40;99.90;;;;;;5040588;28;20198;-83
2021/12/22 04:35:25;;;;;;;15.18;12.00;;;-3.40;99.90;;;;;;5040276;28;20194;-84
2021/12/22 04:37:52;;;;;;;13.70;12.30;;;-3.40;99.90;;;;;;5040589;28;20699;-83
2021/12/22 04:40:19;;;;;;;16.02;12.45;;;-3.50;99.90;;;;;;5040314;28;20298;-83
2021/12/22 04:42:46;;;;;;;19.10;13.13;;;-3.50;99.90;;;;;;5040748;28;20209;-84
2021/12/22 04:45:14;;;;;;;18.10;13.80;;;-3.50;99.90;;;;;;5023755;28;20595;-83
2021/12/22 04:47:41;;;;;;;20.20;13.95;;;-3.50;99.90;;;;;;5040585;28;20229;-83
2021/12/22 04:50:14;;;;;;;19.20;12.95;;;-3.50;99.90;;;;;;5039435;28;20874;-83
2021/12/22 04:52:47;;;;;;;20.90;13.55;;;-3.60;99.90;;;;;;5039213;28;20237;-83
2021/12/22 04:55:13;;;;;;;15.43;13.43;;;-3.60;99.90;;;;;;5038291;28;20202;-84
2021/12/22 04:57:40;;;;;;;15.52;13.10;;;-3.50;99.90;;;;;;5038972;28;20229;-83
2021/12/22 05:00:10;;;;;;;17.65;13.38;;;-3.60;99.90;;;;;;5037458;28;20213;-83
2021/12/22 05:02:37;;;;;;;20.33;13.90;;;-3.60;99.90;;;;;;5040289;28;20222;-83
2021/12/22 05:05:05;;;;;;;15.70;11.70;;;-3.60;99.90;;;;;;5045158;28;20226;-83
2021/12/22 05:07:33;;;;;;;18.05;13.20;;;-3.50;99.90;;;;;;5042164;28;20229;-84
2021/12/22 05:10:00;;;;;;;16.90;13.30;;;-3.50;99.90;;;;;;5041001;28;20668;-83
2021/12/22 05:12:26;;;;;;;16.83;13.63;;;-3.50;99.90;;;;;;5039927;28;20282;-84
2021/12/22 05:14:53;;;;;;;13.88;12.27;;;-3.60;99.90;;;;;;5039602;28;20233;-83
2021/12/22 05:17:25;;;;;;;17.23;12.35;;;-3.60;99.90;;;;;;5040152;28;20238;-83
2021/12/22 05:19:52;;;;;;;15.32;11.27;;;-3.60;99.90;;;;;;5039893;28;20664;-84
2021/12/22 05:22:20;;;;;;;19.83;12.27;;;-3.60;99.90;;;;;;5039581;28;20194;-83
2021/12/22 05:24:48;;;;;;;14.98;10.90;;;-3.60;99.90;;;;;;5039692;28;20233;-83
2021/12/22 05:27:14;;;;;;;20.73;14.00;;;-3.60;99.90;;;;;;5039701;28;20229;-83
2021/12/22 05:29:41;;;;;;;15.68;12.30;;;-3.60;99.90;;;;;;5040103;28;20206;-83
2021/12/22 05:32:08;;;;;;;21.38;14.02;;;-3.60;99.90;;;;;;5039710;28;20214;-83
2021/12/22 05:34:35;;;;;;;18.55;15.02;;;-3.60;99.90;;;;;;5039356;28;20218;-84
2021/12/22 05:37:01;;;;;;;15.73;13.13;;;-3.60;99.90;;;;;;5038963;28;20726;-84
2021/12/22 05:39:28;;;;;;;16.98;13.38;;;-3.60;99.90;;;;;;5037040;28;20667;-83
2021/12/22 05:41:57;;;;;;;25.20;14.73;;;-3.60;99.90;;;;;;5034401;28;20205;-83
2021/12/22 05:44:24;;;;;;;15.65;12.15;;;-3.60;99.90;;;;;;5033892;28;20238;-83
2021/12/22 05:46:51;;;;;;;17.60;11.75;;;-3.60;99.90;;;;;;5033399;28;20234;-83
2021/12/22 05:49:18;;;;;;;16.60;14.48;;;-3.60;99.90;;;;;;5033835;28;20203;-83
2021/12/22 05:51:45;;;;;;;15.13;11.70;;;-3.60;99.90;;;;;;5033868;28;20194;-83
2021/12/22 05:54:12;;;;;;;15.18;13.07;;;-3.60;99.90;;;;;;5033828;28;20209;-84
2021/12/22 05:56:38;;;;;;;13.35;12.05;;;-3.50;99.90;;;;;;5033529;28;20745;-83
2021/12/22 05:59:06;;;;;;;14.15;12.57;;;-3.60;99.90;;;;;;5034741;28;20221;-83
2021/12/22 06:01:33;;;;;;;15.02;13.43;;;-3.60;99.90;;;;;;5037061;28;20203;-83
2021/12/22 06:04:02;;;;;;;15.40;12.77;;;-3.60;99.90;;;;;;5035703;28;20210;-84
2021/12/22 06:06:29;;;;;;;18.23;13.68;;;-3.60;99.90;;;;;;5035083;28;20226;-82
2021/12/22 06:08:56;;;;;;;15.27;13.27;;;-3.60;99.90;;;;;;5034374;28;20690;-82
2021/12/22 06:11:23;;;;;;;16.92;11.70;;;-3.60;99.90;;;;;;5033112;28;20664;-82
2021/12/22 06:13:50;;;;;;;22.30;14.95;;;-3.60;99.90;;;;;;5033713;28;20261;-83
2021/12/22 06:16:18;;;;;;;22.92;14.18;;;-3.60;99.90;;;;;;5033292;28;20317;-82
2021/12/22 06:18:47;;;;;;;16.63;12.43;;;-3.60;99.90;;;;;;5033238;28;20237;-82
2021/12/22 06:21:15;;;;;;;23.95;15.70;;;-3.70;99.90;;;;;;5032696;28;20203;-82
2021/12/22 06:23:42;;;;;;;19.52;15.13;;;-3.70;99.90;;;;;;5033078;28;20206;-82
2021/12/22 06:26:08;;;;;;;13.77;12.38;;;-3.70;99.90;;;;;;5031977;28;20230;-82
2021/12/22 06:28:35;;;;;;;16.73;14.73;;;-3.80;99.90;;;;;;5032778;28;20194;-82
2021/12/22 06:31:03;;;;;;;13.77;12.18;;;-3.80;99.90;;;;;;5032457;28;20218;-82
2021/12/22 06:33:31;;;;;;;19.67;14.35;;;-3.90;99.90;;;;;;5032293;28;20194;-82
2021/12/22 06:35:57;;;;;;;16.92;13.07;;;-3.90;99.90;;;;;;5032529;28;20599;-82
2021/12/22 06:38:25;;;;;;;17.92;14.07;;;-3.90;99.90;;;;;;5031627;28;20202;-82
2021/12/22 06:40:52;;;;;;;22.55;16.17;;;-3.90;99.90;;;;;;5031921;28;20217;-82
2021/12/22 06:43:19;;;;;;;21.75;15.15;;;-3.90;99.90;;;;;;5033526;28;20598;-82
2021/12/22 06:45:47;;;;;;;17.40;13.68;;;-3.90;99.90;;;;;;5032227;28;20215;-82
2021/12/22 06:48:14;;;;;;;16.65;13.90;;;-3.90;99.90;;;;;;5032783;28;20202;-82
2021/12/22 06:50:42;;;;;;;17.27;14.57;;;-4.00;99.90;;;;;;5031936;28;20210;-82
2021/12/22 06:53:08;;;;;;;22.27;16.08;;;-4.00;99.90;;;;;;5034578;28;20209;-82
2021/12/22 06:55:35;;;;;;;19.92;13.63;;;-4.00;99.90;;;;;;5033291;28;20198;-82
2021/12/22 06:58:02;;;;;;;16.40;13.65;;;-3.90;99.90;;;;;;5032944;28;20206;-82
2021/12/22 07:00:29;;;;;;;17.95;14.20;;;-3.90;99.90;;;;;;5033424;28;20645;-82
2021/12/22 07:02:57;;;;;;;16.45;13.40;;;-3.90;99.90;;;;;;5038430;28;20206;-82
2021/12/22 07:05:24;;;;;;;16.50;14.55;;;-3.90;99.90;;;;;;5032968;28;20207;-79
2021/12/22 07:07:52;;;;;;;19.38;14.57;;;-4.00;99.90;;;;;;5033535;28;20230;-79
2021/12/22 07:10:19;;;;;;;21.80;14.75;;;-4.00;99.90;;;;;;5036135;28;20203;-79
2021/12/22 07:12:48;;;;;;;24.55;15.90;;;-3.80;99.90;;;;;;5034896;28;20696;-79
2021/12/22 07:15:16;;;;;;;25.92;16.05;;;-3.70;99.90;;;;;;5036184;28;20214;-79
2021/12/22 07:17:43;;;;;;;19.83;16.40;;;-3.70;99.90;;;;;;5052303;28;20227;-78
2021/12/22 07:20:11;;;;;;;18.45;15.68;;;-3.60;99.90;;;;;;5053386;28;20193;-79
2021/12/22 07:22:38;;;;;;;23.80;16.85;;;-3.60;99.90;;;;;;5031347;28;20209;-79
2021/12/22 07:25:07;;;;;;;21.83;15.70;;;-3.60;99.90;;;;;;5028241;28;20199;-79
2021/12/22 07:27:34;;;;;;;20.58;14.65;;;-3.60;99.90;;;;;;5027240;28;20222;-79
2021/12/22 07:30:01;;;;;;;24.98;16.10;;;-3.60;99.90;;;;;;5029952;28;20587;-79
2021/12/22 07:32:28;;;;;;;17.33;14.98;;;-3.60;99.90;;;;;;5028108;28;20202;-79
2021/12/22 07:35:03;;;;;;;17.77;14.63;;;-3.60;99.90;;;;;;5025436;28;20202;-79
2021/12/22 07:37:42;;;;;;;19.35;14.40;;;-3.60;99.90;;;;;;5027037;28;20224;-79
2021/12/22 07:40:13;;;;;;;15.75;14.05;;;-3.70;99.90;;;;;;5028173;28;20211;-79
2021/12/22 07:42:40;;;;;;;23.85;15.70;;;-3.70;99.90;;;;;;5031674;28;20203;-78
2021/12/22 07:45:08;;;;;;;19.58;13.43;;;-3.60;99.90;;;;;;5026705;28;20206;-78
2021/12/22 07:47:35;;;;;;;22.88;15.30;;;-3.60;99.90;;;;;;5025453;28;20218;-78
2021/12/22 07:50:02;;;;;;;21.55;14.45;;;-3.50;99.90;;;;;;5029241;28;20668;-78
2021/12/22 07:52:30;;;;;;;26.50;16.35;;;-3.60;99.90;;;;;;5029446;28;20202;-78
2021/12/22 07:54:57;;;;;;;21.60;16.45;;;-3.50;99.90;;;;;;5028332;28;20211;-78
2021/12/22 07:57:25;;;;;;;24.67;18.08;;;-3.40;99.90;;;;;;5024578;28;20696;-78
2021/12/22 07:59:52;;;;;;;24.17;16.90;;;-3.40;99.90;;;;;;5025064;28;20210;-78
2021/12/22 08:02:19;;;;;;;24.52;18.80;;;-3.30;99.90;;;;;;5024912;28;20203;-78
2021/12/22 08:04:46;;;;;;;22.92;15.07;;;-3.30;99.90;;;;;;5022668;28;20210;-77
2021/12/22 08:07:12;;;;;;;18.63;15.98;;;-3.20;99.90;;;;;;5024225;28;20266;-77
2021/12/22 08:09:39;;;;;;;21.30;15.75;;;-3.20;99.90;;;;;;5026884;28;20199;-78
2021/12/22 08:12:07;;;;;;;18.02;13.18;;;-3.10;99.90;;;;;;5026767;28;20207;-78
2021/12/22 08:14:38;;;;;;;17.02;14.70;;;-3.10;99.90;;;;;;5025164;28;20577;-80
2021/12/22 08:17:05;;;;;;;22.20;15.60;;;-3.10;99.90;;;;;;5046085;28;20293;-79
2021/12/22 08:19:32;;;;;;;29.55;18.17;;;-3.00;99.90;;;;;;5046120;28;20206;-80
2021/12/22 08:21:59;;;;;;;22.90;17.08;;;-3.00;99.90;;;;;;5040617;28;20672;-78
2021/12/22 08:24:26;;;;;;;21.55;15.82;;;-2.90;99.90;;;;;;5037837;28;20213;-78
2021/12/22 08:26:53;;;;;;;21.60;16.77;;;-3.00;99.90;;;;;;5038741;28;20233;-79
2021/12/22 08:29:20;;;;;;;19.98;16.88;;;-2.90;99.90;;;;;;5027749;28;20203;-79
2021/12/22 08:31:48;;;;;;;19.35;14.25;;;-2.80;99.90;;;;;;5020085;28;20227;-79
2021/12/22 08:34:22;;;;;;;24.75;15.65;;;-2.70;99.90;;;;;;5039083;28;20218;-79
2021/12/22 08:39:34;;;;;;;30.13;17.90;;;-2.60;99.90;;;;;;5035615;28;20209;-78
2021/12/22 08:42:00;;;;;;;24.25;15.70;;;-2.50;99.90;;;;;;5034808;28;20202;-78
2021/12/22 08:44:28;;;;;;;24.73;18.02;;;-2.50;99.90;;;;;;5039944;28;20203;-78
2021/12/22 08:46:56;;;;;;;21.80;16.02;;;-2.40;99.90;;;;;;5039906;28;20594;-78
2021/12/22 08:49:23;;;;;;;19.23;14.90;;;-2.40;99.90;;;;;;5040130;28;20206;-79
2021/12/22 08:51:50;;;;;;;25.60;16.15;;;-2.40;99.90;;;;;;5039775;28;20213;-79
2021/12/22 08:54:17;;;;;;;20.08;15.18;;;-2.30;99.90;;;;;;5039604;28;20490;-79
2021/12/22 08:56:45;;;;;;;20.40;14.70;;;-2.30;99.90;;;;;;5039752;28;20572;-79
2021/12/22 08:59:14;;;;;;;18.58;13.85;;;-2.20;99.90;;;;;;5039517;28;20217;-79
2021/12/22 09:01:41;;;;;;;18.13;13.77;;;-2.10;99.90;;;;;;5039399;28;20210;-79
2021/12/22 09:04:10;;;;;;;20.40;14.88;;;-2.10;99.90;;;;;;5039989;28;20203;-78
2021/12/22 09:06:37;;;;;;;17.40;13.23;;;-2.00;99.90;;;;;;5036955;28;20222;-78
2021/12/22 09:09:06;;;;;;;16.77;13.85;;;-1.90;99.90;;;;;;5035655;28;20210;-78
2021/12/22 09:11:32;;;;;;;15.75;12.95;;;-1.90;99.90;;;;;;5035181;28;20206;-78
2021/12/22 09:14:01;;;;;;;13.98;11.52;;;-1.90;99.90;;;;;;5036335;28;20578;-79
2021/12/22 09:16:28;;;;;;;14.90;12.05;;;-1.80;99.90;;;;;;5037973;28;20269;-77
2021/12/22 09:18:56;;;;;;;15.85;12.77;;;-1.80;99.90;;;;;;5039270;28;20211;-79
2021/12/22 09:21:24;;;;;;;12.65;11.35;;;-1.80;99.90;;;;;;5034976;28;20211;-78
2021/12/22 09:23:50;;;;;;;19.67;13.38;;;-1.60;99.90;;;;;;5034011;28;20213;-78
2021/12/22 09:26:18;;;;;;;17.23;13.38;;;-1.60;99.90;;;;;;5035901;28;20730;-79
2021/12/22 09:28:45;;;;;;;20.70;12.77;;;-1.60;99.90;;;;;;5037322;28;20676;-79
2021/12/22 09:31:12;;;;;;;15.68;12.40;;;-1.50;99.90;;;;;;5036196;28;20586;-78
2021/12/22 09:33:40;;;;;;;18.90;13.27;;;-1.40;99.90;;;;;;5034707;28;20245;-78
2021/12/22 09:36:12;;;;;;;23.50;12.75;;;-1.40;99.90;;;;;;5034937;28;20229;-78
2021/12/22 09:38:40;;;;;;;18.48;12.82;;;-1.30;99.90;;;;;;5035046;28;20210;-78
2021/12/22 09:41:09;;;;;;;21.00;13.25;;;-1.20;99.90;;;;;;5035025;28;20206;-78
2021/12/22 09:43:36;;;;;;;16.92;13.45;;;-1.30;99.90;;;;;;5033891;28;20206;-78
2021/12/22 09:46:08;;;;;;;17.67;12.45;;;-1.20;99.90;;;;;;5034403;28;20683;-78
2021/12/22 09:48:48;;;;;;;7.05;5.43;;;-1.20;99.90;;;;;;5034945;28;20230;-78
2021/12/22 09:54:04;;;;;;;11.05;9.32;;;-1.10;99.90;;;;;;5034716;28;20663;-78
2021/12/22 09:56:33;;;;;;;14.52;10.75;;;-1.00;99.90;;;;;;5034478;28;20226;-78
2021/12/22 09:59:00;;;;;;;17.77;12.85;;;-1.00;99.90;;;;;;5034566;28;20296;-78
2021/12/22 10:01:27;;;;;;;14.00;11.65;;;-0.90;99.90;;;;;;5033672;28;20265;-78
2021/12/22 10:03:58;;;;;;;16.60;10.80;;;-0.90;99.90;;;;;;5034102;28;20206;-78
2021/12/22 10:06:25;;;;;;;14.75;11.98;;;-0.80;99.90;;;;;;5034312;28;20226;-78
2021/12/22 10:08:53;;;;;;;14.30;10.10;;;-0.70;99.90;;;;;;5034072;28;20214;-78
2021/12/22 10:11:22;;;;;;;18.02;11.93;;;-0.60;99.90;;;;;;5034315;28;20297;-78
2021/12/22 10:13:49;;;;;;;22.35;14.23;;;-0.50;99.90;;;;;;5034188;28;20213;-78
2021/12/22 10:16:18;;;;;;;14.82;11.68;;;-0.50;99.90;;;;;;5034142;28;20237;-78
2021/12/22 10:18:46;;;;;;;13.55;10.93;;;-0.40;99.90;;;;;;5034279;28;20214;-78
2021/12/22 10:21:15;;;;;;;14.88;12.07;;;-0.20;99.90;;;;;;5033953;28;20221;-78
2021/12/22 10:23:43;;;;;;;17.45;12.75;;;-0.20;99.90;;;;;;5033518;28;20214;-79
2021/12/22 10:26:15;;;;;;;14.23;11.95;;;-0.20;99.90;;;;;;5034361;28;20568;-78
2021/12/22 10:28:49;;;;;;;18.83;12.20;;;0.00;99.90;;;;;;5034486;28;20234;-78
2021/12/22 10:31:18;;;;;;;15.45;11.80;;;0.10;99.90;;;;;;5033099;28;20214;-78
2021/12/22 10:33:45;;;;;;;16.88;12.20;;;0.10;99.90;;;;;;5033483;28;20234;-78
2021/12/22 10:36:14;;;;;;;15.73;10.82;;;0.30;99.90;;;;;;5033314;28;20234;-78
2021/12/22 10:38:47;;;;;;;16.70;12.68;;;0.50;99.90;;;;;;5033936;28;20206;-78
2021/12/22 10:41:14;;;;;;;14.95;11.60;;;0.90;99.90;;;;;;5033653;28;20219;-78
2021/12/22 10:43:44;;;;;;;13.13;11.88;;;1.40;99.90;;;;;;5033676;28;20206;-78
2021/12/22 10:46:16;;;;;;;14.73;11.82;;;1.80;99.90;;;;;;5034035;28;20246;-78
2021/12/22 10:51:31;;;;;;;17.25;12.57;;;2.60;98.60;;;;;;5033862;28;20205;-79
2021/12/22 10:53:58;;;;;;;17.63;10.90;;;3.30;97.60;;;;;;5037265;28;20229;-78
2021/12/22 10:56:29;;;;;;;12.38;10.63;;;3.60;95.50;;;;;;5037469;28;20239;-78
2021/12/22 10:59:05;;;;;;;16.75;11.30;;;4.00;94.60;;;;;;5037790;28;20217;-78
2021/12/22 11:01:35;;;;;;;12.85;11.52;;;3.90;93.50;;;;;;5037597;28;20203;-78
2021/12/22 11:04:05;;;;;;;11.38;10.15;;;4.00;93.40;;;;;;5037128;28;20233;-78
2021/12/22 11:06:35;;;;;;;15.35;11.50;;;4.30;93.40;;;;;;5037544;28;20231;-79
2021/12/22 11:09:04;;;;;;;10.80;9.82;;;4.50;92.90;;;;;;5037245;28;20204;-79
2021/12/22 11:11:34;;;;;;;16.65;12.57;;;5.00;92.10;;;;;;5036868;28;20213;-79
2021/12/22 11:14:04;;;;;;;12.75;10.93;;;5.30;91.20;;;;;;5037410;28;20206;-79
2021/12/22 11:16:31;;;;;;;13.88;11.95;;;5.60;91.00;;;;;;5037139;28;20233;-78
2021/12/22 11:19:09;;;;;;;13.18;11.77;;;6.20;89.50;;;;;;5037386;28;20198;-79
2021/12/22 11:21:52;;;;;;;15.18;12.23;;;6.30;87.20;;;;;;5036601;28;20217;-79
2021/12/22 11:24:19;;;;;;;17.00;13.27;;;6.60;86.00;;;;;;5037268;28;20636;-79
2021/12/22 11:26:47;;;;;;;16.33;13.30;;;7.30;84.80;;;;;;5040983;28;20249;-80
2021/12/22 11:29:13;;;;;;;18.50;12.77;;;7.80;81.00;;;;;;5041227;28;20206;-81
2021/12/22 11:31:40;;;;;;;17.70;12.63;;;7.90;79.60;;;;;;5038778;28;20206;-79
2021/12/22 11:34:09;;;;;;;15.40;12.63;;;8.50;79.70;;;;;;5037168;28;20218;-80
2021/12/22 11:36:36;;;;;;;16.13;13.15;;;9.00;77.90;;;;;;5037530;28;20233;-80
2021/12/22 11:39:03;;;;;;;15.80;13.15;;;9.40;75.00;;;;;;5037346;28;20243;-80
2021/12/22 11:41:31;;;;;;;15.30;13.80;;;10.20;71.40;;;;;;5036696;28;20666;-80
2021/12/22 11:44:01;;;;;;;15.80;13.30;;;10.60;68.10;;;;;;5037404;28;20508;-80
2021/12/22 11:46:30;;;;;;;15.60;13.90;;;10.70;67.30;;;;;;5037914;28;20240;-80
2021/12/22 11:48:57;;;;;;;14.40;12.32;;;10.70;66.20;;;;;;5037558;28;20235;-80
2021/12/22 11:51:27;;;;;;;16.25;12.13;;;10.50;65.50;;;;;;5037528;28;20210;-80
2021/12/22 11:53:56;;;;;;;14.40;12.90;;;10.30;65.30;;;;;;5037258;28;20208;-80
2021/12/22 11:56:37;;;;;;;13.70;11.80;;;10.20;65.70;;;;;;5037284;28;20226;-80
2021/12/22 11:59:04;;;;;;;19.30;13.75;;;9.90;66.00;;;;;;5036431;28;20210;-79
2021/12/22 12:01:31;;;;;;;13.93;11.95;;;9.60;67.00;;;;;;5036416;28;20206;-79
2021/12/22 12:04:19;;;;;;;15.15;13.68;;;9.30;68.40;;;;;;5035462;28;20214;-79
2021/12/22 12:06:52;;;;;;;15.02;13.63;;;9.60;69.40;;;;;;5036693;28;20258;-80
2021/12/22 12:09:23;;;;;;;14.68;12.48;;;9.50;66.90;;;;;;5036549;28;20252;-80
2021/12/22 12:11:54;;;;;;;13.43;11.63;;;10.20;66.90;;;;;;5036358;28;20686;-80
2021/12/22 12:14:44;;;;;;;14.80;13.10;;;10.70;64.70;;;;;;5036437;28;20208;-80
2021/12/22 12:23:29;;;;;;;19.10;14.13;;;12.80;58.70;;;;;;5036287;28;20971;-79
2021/12/22 12:25:57;;;;;;;14.43;12.97;;;13.10;57.80;;;;;;5036118;28;20554;-80
2021/12/22 12:28:25;;;;;;;14.00;12.60;;;13.50;55.90;;;;;;5035890;28;20497;-80
2021/12/22 12:30:53;;;;;;;15.27;13.10;;;13.80;55.80;;;;;;5036069;28;20775;-80
2021/12/22 12:33:27;;;;;;;16.50;13.00;;;14.30;54.90;;;;;;5036201;28;20449;-80
2021/12/22 12:35:59;;;;;;;19.83;15.07;;;14.50;53.80;;;;;;5036229;28;20930;-81
2021/12/22 12:38:31;;;;;;;20.23;14.23;;;14.70;52.70;;;;;;5036490;28;20450;-81
2021/12/22 12:41:23;;;;;;;14.97;13.53;;;15.00;51.90;;;;;;5035931;28;20440;-80
2021/12/22 12:43:56;;;;;;;13.73;12.33;;;14.80;51.00;;;;;;5035706;28;20523;-81
2021/12/22 12:46:39;;;;;;;15.00;13.23;;;14.20;51.50;;;;;;5036066;28;20481;-80
2021/12/22 12:49:36;;;;;;;14.57;13.07;;;13.90;51.80;;;;;;5035832;28;20566;-80
2021/12/22 12:52:10;;;;;;;17.07;13.47;;;14.40;52.10;;;;;;5035891;28;20452;-80
2021/12/22 12:54:40;;;;;;;13.37;12.10;;;14.00;50.80;;;;;;5035938;28;20511;-80